createdAt,value
2022-08-25T00:03:20.525Z,11.73
2022-08-25T00:08:25.592Z,13.45
2022-08-25T00:13:29.232Z,11.35
2022-08-25T00:18:33.937Z,7.78
2022-08-25T00:23:37.249Z,10.80
2022-08-25T00:28:40.756Z,9.02
2022-08-25T00:33:46.311Z,7.65
2022-08-25T00:38:50.030Z,10.50
2022-08-25T00:43:56.861Z,8.48
2022-08-25T00:49:04.740Z,9.82
2022-08-25T00:54:09.491Z,8.77
2022-08-25T00:59:13.922Z,10.30
2022-08-25T01:04:19.130Z,7.63
2022-08-25T01:09:22.627Z,9.98
2022-08-25T01:14:26.506Z,8.52
2022-08-25T01:19:33.488Z,9.27
2022-08-25T01:24:43.425Z,8.63
2022-08-25T01:29:46.635Z,9.18
2022-08-25T01:34:49.801Z,9.88
2022-08-25T01:39:56.646Z,11.23
2022-08-25T01:44:59.863Z,8.90
2022-08-25T01:50:03.029Z,10.27
2022-08-25T01:55:08.809Z,6.13
2022-08-25T02:00:14.376Z,7.97
2022-08-25T02:05:20.381Z,11.30
2022-08-25T02:10:27.798Z,6.70
2022-08-25T02:15:31.047Z,7.40
2022-08-25T02:20:34.229Z,8.18
2022-08-25T02:25:41.209Z,10.20
2022-08-25T02:30:45.177Z,9.80
2022-08-25T02:35:48.465Z,8.07
2022-08-25T02:40:53.316Z,8.93
2022-08-25T02:45:56.908Z,10.30
2022-08-25T02:51:02.738Z,10.80
2022-08-25T02:56:08.880Z,8.40
2022-08-25T03:01:12.624Z,11.02
2022-08-25T03:06:19.844Z,9.60
2022-08-25T03:11:26.517Z,8.13
2022-08-25T03:16:29.898Z,9.55
2022-08-25T03:21:33.207Z,8.85
2022-08-25T03:26:56.100Z,11.25
2022-08-25T03:32:00.611Z,10.50
2022-08-25T03:37:03.827Z,6.57
2022-08-25T03:42:08.771Z,7.78
2022-08-25T03:47:12.666Z,7.47
2022-08-25T03:52:16.905Z,7.40
2022-08-25T03:57:21.760Z,8.35
2022-08-25T04:02:25.049Z,6.95
2022-08-25T04:07:28.272Z,8.85
2022-08-25T04:12:32.824Z,8.35
2022-08-25T04:17:39.984Z,8.63
2022-08-25T04:22:44.918Z,13.90
2022-08-25T04:27:49.948Z,9.00
2022-08-25T04:32:53.103Z,7.28
2022-08-25T04:37:56.588Z,13.13
2022-08-25T04:43:01.169Z,8.25
2022-08-25T04:48:04.658Z,10.05
2022-08-25T04:53:07.887Z,9.10
2022-08-25T04:58:14.903Z,9.35
2022-08-25T05:03:19.824Z,10.88
2022-08-25T05:08:23.028Z,10.25
2022-08-25T05:13:27.924Z,7.68
2022-08-25T05:18:34.000Z,7.88
2022-08-25T05:23:37.325Z,7.78
2022-08-25T05:28:43.001Z,8.82
2022-08-25T05:33:46.520Z,8.88
2022-08-25T05:38:50.132Z,10.43
2022-08-25T05:43:54.729Z,9.60
2022-08-25T05:48:57.911Z,7.95
2022-08-25T05:54:01.140Z,8.15
2022-08-25T05:59:09.256Z,8.50
2022-08-25T06:04:12.773Z,6.95
2022-08-25T06:09:16.245Z,9.57
2022-08-25T06:14:21.579Z,11.85
2022-08-25T06:19:24.871Z,8.40
2022-08-25T06:24:29.224Z,10.85
2022-08-25T06:29:33.797Z,9.82
2022-08-25T06:34:37.607Z,12.27
2022-08-25T06:39:40.999Z,8.40
2022-08-25T06:44:45.560Z,14.38
2022-08-25T06:49:49.740Z,11.13
2022-08-25T06:54:53.329Z,7.50
2022-08-25T06:59:57.884Z,9.57
2022-08-25T07:05:01.557Z,9.82
2022-08-25T07:10:06.025Z,9.18
2022-08-25T07:15:27.063Z,11.63
2022-08-25T07:20:31.594Z,8.70
2022-08-25T07:25:35.018Z,9.10
2022-08-25T07:30:39.597Z,8.48
2022-08-25T07:35:43.686Z,8.07
2022-08-25T07:40:53.306Z,8.00
2022-08-25T07:45:58.493Z,9.95
2022-08-25T07:51:07.773Z,8.27
2022-08-25T07:56:13.750Z,9.07
2022-08-25T08:01:19.741Z,9.93
2022-08-25T08:06:25.441Z,11.30
2022-08-25T08:11:31.831Z,8.18
2022-08-25T08:16:37.498Z,9.10
2022-08-25T08:21:42.755Z,6.32
2022-08-25T08:26:58.333Z,7.90
2022-08-25T08:32:04.396Z,7.38
2022-08-25T08:37:10.529Z,8.00
2022-08-25T08:42:25.995Z,8.68
2022-08-25T08:47:44.681Z,7.70
2022-08-25T08:52:52.113Z,8.00
2022-08-25T08:57:58.236Z,9.48
2022-08-25T09:03:07.947Z,7.72
2022-08-25T09:08:13.720Z,7.82
2022-08-25T09:13:36.729Z,7.07
2022-08-25T09:18:53.338Z,8.90
2022-08-25T09:24:18.805Z,9.73
2022-08-25T09:29:26.258Z,8.95
2022-08-25T09:34:35.991Z,13.38
2022-08-25T09:39:39.149Z,9.75
2022-08-25T09:44:44.371Z,10.00
2022-08-25T09:49:51.476Z,9.48
2022-08-25T09:54:56.486Z,11.90
2022-08-25T10:00:16.176Z,8.57
2022-08-25T10:05:23.711Z,7.55
2022-08-25T10:10:32.435Z,10.98
2022-08-25T10:15:38.860Z,9.85
2022-08-25T10:20:44.825Z,6.82
2022-08-25T10:25:59.081Z,8.80
2022-08-25T10:31:16.220Z,7.05
2022-08-25T10:36:24.561Z,7.70
2022-08-25T10:41:41.177Z,5.03
2022-08-25T10:46:54.330Z,7.63
2022-08-25T10:52:04.400Z,6.97
2022-08-25T10:57:16.938Z,5.18
2022-08-25T11:02:59.645Z,7.55
2022-08-25T11:08:11.559Z,7.45
2022-08-25T11:13:24.161Z,7.35
2022-08-25T11:18:31.817Z,4.95
2022-08-25T11:23:39.607Z,9.48
2022-08-25T11:28:52.205Z,6.85
2022-08-25T11:34:00.584Z,7.57
2022-08-25T11:39:16.991Z,7.20
2022-08-25T11:44:53.279Z,9.48
2022-08-25T11:50:03.533Z,4.32
2022-08-25T11:55:13.564Z,4.53
2022-08-25T12:00:38.696Z,5.03
2022-08-25T12:06:12.944Z,4.97
2022-08-25T12:11:49.339Z,6.45
2022-08-25T12:17:10.098Z,4.28
2022-08-25T12:22:55.347Z,5.75
2022-08-25T12:28:09.188Z,5.03
2022-08-25T12:33:23.104Z,3.90
2022-08-25T12:38:34.969Z,5.63
2022-08-25T12:43:44.980Z,3.28
2022-08-25T12:49:12.410Z,4.10
2022-08-25T12:54:23.600Z,6.88
2022-08-25T12:59:38.119Z,4.97
2022-08-25T13:05:19.558Z,4.93
2022-08-25T13:10:33.141Z,8.13
2022-08-25T13:15:44.573Z,4.82
2022-08-25T13:20:53.995Z,4.32
2022-08-25T13:25:58.384Z,5.32
2022-08-25T13:31:09.194Z,3.78
2022-08-25T13:36:35.869Z,3.38
2022-08-25T13:41:45.226Z,5.13
2022-08-25T13:47:07.273Z,3.60
2022-08-25T13:52:19.378Z,3.50
2022-08-25T13:57:32.346Z,3.92
2022-08-25T14:02:49.692Z,4.13
2022-08-25T14:08:09.298Z,3.67
2022-08-25T14:13:33.076Z,3.90
2022-08-25T14:18:38.312Z,2.80
2022-08-25T14:23:42.368Z,3.63
2022-08-25T14:28:45.588Z,4.40
2022-08-25T14:33:56.695Z,4.07
2022-08-25T14:39:00.648Z,2.53
2022-08-25T14:44:06.727Z,3.40
2022-08-25T14:49:14.785Z,3.53
2022-08-25T14:54:18.830Z,3.42
2022-08-25T14:59:22.747Z,2.58
2022-08-25T15:04:30.079Z,3.13
2022-08-25T15:09:33.788Z,3.03
2022-08-25T15:14:37.131Z,3.20
2022-08-25T15:19:42.284Z,2.40
2022-08-25T15:24:45.481Z,3.45
2022-08-25T15:29:48.776Z,5.65
2022-08-25T15:34:54.560Z,3.65
2022-08-25T15:39:57.862Z,3.83
2022-08-25T15:45:01.539Z,2.50
2022-08-25T15:50:09.851Z,3.72
2022-08-25T15:55:13.157Z,4.10
2022-08-25T16:00:17.811Z,3.10
2022-08-25T16:05:25.700Z,3.53
2022-08-25T16:10:29.758Z,3.72
2022-08-25T16:15:35.690Z,2.65
2022-08-25T16:20:45.600Z,3.17
2022-08-25T16:25:49.694Z,3.15
2022-08-25T16:30:55.130Z,3.38
2022-08-25T16:36:07.883Z,2.83
2022-08-25T16:41:14.246Z,3.08
2022-08-25T16:46:19.308Z,3.20
2022-08-25T16:51:25.665Z,2.30
2022-08-25T16:56:34.400Z,2.72
2022-08-25T17:01:38.423Z,2.80
2022-08-25T17:06:49.271Z,2.28
2022-08-25T17:11:56.949Z,3.45
2022-08-25T17:17:00.235Z,2.30
2022-08-25T17:22:08.125Z,2.97
2022-08-25T17:27:12.583Z,2.22
2022-08-25T17:32:15.914Z,4.63
2022-08-25T17:37:20.526Z,2.50
2022-08-25T17:42:24.497Z,4.50
2022-08-25T17:47:33.496Z,4.47
2022-08-25T17:52:38.035Z,3.90
2022-08-25T17:57:41.356Z,2.65
2022-08-25T18:02:44.653Z,3.60
2022-08-25T18:07:49.610Z,3.55
2022-08-25T18:12:52.830Z,2.92
2022-08-25T18:17:57.036Z,3.83
2022-08-25T18:23:02.005Z,5.35
2022-08-25T18:28:05.610Z,5.20
2022-08-25T18:33:09.820Z,4.60
2022-08-25T18:38:31.976Z,3.72
2022-08-25T18:43:36.768Z,3.92
2022-08-25T18:48:40.128Z,6.18
2022-08-25T18:53:50.228Z,6.15
2022-08-25T18:58:54.174Z,5.20
2022-08-25T19:03:57.666Z,6.97
2022-08-25T19:09:02.388Z,4.82
2022-08-25T19:14:12.075Z,4.10
2022-08-25T19:19:16.162Z,6.20
2022-08-25T19:24:20.804Z,6.43
2022-08-25T19:29:25.184Z,5.47
2022-08-25T19:34:35.244Z,6.47
2022-08-25T19:39:42.518Z,5.80
2022-08-25T19:44:55.955Z,6.35
2022-08-25T19:49:59.883Z,4.55
2022-08-25T19:55:05.215Z,3.97
2022-08-25T20:00:12.413Z,4.10
2022-08-25T20:05:23.546Z,6.10
2022-08-25T20:10:35.601Z,5.93
2022-08-25T20:15:45.252Z,5.00
2022-08-25T20:20:48.585Z,4.90
2022-08-25T20:25:53.605Z,6.60
2022-08-25T20:30:56.832Z,4.28
2022-08-25T20:36:00.127Z,6.03
2022-08-25T20:41:09.602Z,4.07
2022-08-25T20:46:13.252Z,4.20
2022-08-25T20:51:18.740Z,5.43
2022-08-25T20:56:24.211Z,4.30
2022-08-25T21:01:39.774Z,4.00
2022-08-25T21:06:43.902Z,5.38
2022-08-25T21:11:49.359Z,6.30
2022-08-25T21:16:53.679Z,3.90
2022-08-25T21:21:59.564Z,4.82
2022-08-25T21:27:05.136Z,3.90
2022-08-25T21:32:09.920Z,3.38
2022-08-25T21:37:13.190Z,4.53
2022-08-25T21:42:17.919Z,5.82
2022-08-25T21:47:21.760Z,4.43
2022-08-25T21:52:26.682Z,3.83
2022-08-25T21:57:31.391Z,3.88
2022-08-25T22:02:34.920Z,3.70
2022-08-25T22:07:42.106Z,5.03
2022-08-25T22:12:49.888Z,4.82
2022-08-25T22:17:53.088Z,4.45
2022-08-25T22:22:56.285Z,5.70
2022-08-25T22:28:01.031Z,5.03
2022-08-25T22:33:05.394Z,4.43
2022-08-25T22:38:12.677Z,5.78
2022-08-25T22:43:17.513Z,4.78
2022-08-25T22:48:20.828Z,3.20
2022-08-25T22:53:24.348Z,3.33
2022-08-25T22:58:29.736Z,3.38
2022-08-25T23:03:32.993Z,3.60
2022-08-25T23:08:39.198Z,3.30
2022-08-25T23:13:45.881Z,3.92
2022-08-25T23:18:49.143Z,4.18
2022-08-25T23:23:52.866Z,4.97
2022-08-25T23:28:57.497Z,4.78
2022-08-25T23:34:00.868Z,4.15
2022-08-25T23:39:06.828Z,3.92
2022-08-25T23:44:17.502Z,3.28
2022-08-25T23:49:25.022Z,4.28
2022-08-25T23:54:31.160Z,3.50
2022-08-25T23:59:36.281Z,5.72
